Time;durP1;ratioP1;P1;durP2;ratioP2;P2;SDS_P1;SDS_P2;PMS_P1;PMS_P2;Temp;Humidity;BMP_temperature;BMP_pressure;BME280_temperature;BME280_humidity;BME280_pressure;Samples;Min_cycle;Max_cycle;Signal;HPM_P1;HPM_P2
2021/04/13 00:01:24;;;;;;;1.85;0.98;;;;;;;;;;5033251;28;20072;-75
2021/04/13 00:04:09;;;;;;;2.25;0.95;;;;;;;;;;5055163;28;20518;-75
2021/04/13 00:06:36;;;;;;;2.13;0.90;;;;;;;;;;5062720;28;20045;-75
2021/04/13 00:09:23;;;;;;;2.35;1.00;;;;;;;;;;5064487;28;20128;-75
2021/04/13 00:11:55;;;;;;;1.65;0.82;;;;;;;;;;5037070;28;20508;-75
2021/04/13 00:14:25;;;;;;;2.33;0.90;;;;;;;;;;5055345;28;20083;-75
2021/04/13 00:16:51;;;;;;;2.40;0.90;;;;;;;;;;5054524;28;20396;-75
2021/04/13 00:19:21;;;;;;;3.15;1.02;;;;;;;;;;5040168;28;20057;-75
2021/04/13 00:21:47;;;;;;;2.13;0.93;;;;;;;;;;5055281;28;20035;-75
2021/04/13 00:24:20;;;;;;;2.15;1.00;;;;;;;;;;5053549;28;20060;-75
2021/04/13 00:26:53;;;;;;;2.05;0.90;;;;;;;;;;5030375;28;20065;-75
2021/04/13 00:29:21;;;;;;;2.58;1.02;;;;;;;;;;5027293;28;20026;-76
2021/04/13 00:31:48;;;;;;;2.60;0.98;;;;;;;;;;5018867;28;20033;-76
2021/04/13 00:34:22;;;;;;;1.85;0.90;;;;;;;;;;5052598;28;20038;-75
2021/04/13 00:36:48;;;;;;;1.80;0.93;;;;;;;;;;5071838;28;20035;-76
2021/04/13 00:39:18;;;;;;;2.33;0.90;;;;;;;;;;5069935;28;20024;-75
2021/04/13 00:41:49;;;;;;;1.98;0.80;;;;;;;;;;5059657;28;20033;-75
2021/04/13 00:44:15;;;;;;;2.42;0.90;;;;;;;;;;5018866;28;20064;-75
2021/04/13 00:46:47;;;;;;;2.47;0.90;;;;;;;;;;5051666;28;20405;-75
2021/04/13 00:49:13;;;;;;;2.60;0.90;;;;;;;;;;5031614;28;20517;-75
2021/04/13 00:51:44;;;;;;;2.33;1.00;;;;;;;;;;5070010;28;20116;-75
2021/04/13 00:54:20;;;;;;;1.60;0.80;;;;;;;;;;5036102;28;20473;-75
2021/04/13 00:56:45;;;;;;;1.63;0.90;;;;;;;;;;5035062;28;20049;-75
2021/04/13 00:59:12;;;;;;;1.83;0.90;;;;;;;;;;5010122;28;20029;-75
2021/04/13 01:01:41;;;;;;;2.15;0.93;;;;;;;;;;5039650;28;20108;-75
2021/04/13 01:04:28;;;;;;;2.00;0.90;;;;;;;;;;5034762;28;20404;-75
2021/04/13 01:07:06;;;;;;;1.88;1.00;;;;;;;;;;5045105;28;20055;-75
2021/04/13 01:09:32;;;;;;;2.10;0.90;;;;;;;;;;5037562;28;20069;-75
2021/04/13 01:12:16;;;;;;;1.40;0.83;;;;;;;;;;5051170;28;20079;-75
2021/04/13 01:14:42;;;;;;;1.58;0.85;;;;;;;;;;5035557;28;20037;-75
2021/04/13 01:17:08;;;;;;;2.10;1.00;;;;;;;;;;5051095;28;20039;-75
2021/04/13 01:19:40;;;;;;;2.25;0.88;;;;;;;;;;5033388;28;20082;-75
2021/04/13 01:22:18;;;;;;;1.63;0.77;;;;;;;;;;5045487;28;20128;-75
2021/04/13 01:24:51;;;;;;;2.13;0.90;;;;;;;;;;5053668;28;20082;-76
2021/04/13 01:27:17;;;;;;;2.03;0.90;;;;;;;;;;5068260;28;20093;-75
2021/04/13 01:29:42;;;;;;;1.73;0.90;;;;;;;;;;5070452;28;20045;-76
2021/04/13 01:32:08;;;;;;;1.80;0.83;;;;;;;;;;5046745;28;20095;-75
2021/04/13 01:34:40;;;;;;;2.27;0.90;;;;;;;;;;5040540;28;20496;-76
2021/04/13 01:37:23;;;;;;;1.83;0.80;;;;;;;;;;5055480;28;20275;-75
2021/04/13 01:40:16;;;;;;;1.50;0.80;;;;;;;;;;5068297;28;20056;-75
2021/04/13 01:42:34;;;;;;;2.20;0.98;;;;;;;;;;5042207;28;20098;-75
2021/04/13 01:45:07;;;;;;;1.63;0.90;;;;;;;;;;5067002;28;20119;-75
2021/04/13 01:47:33;;;;;;;1.40;0.80;;;;;;;;;;5069994;28;20469;-75
2021/04/13 01:50:01;;;;;;;1.73;0.83;;;;;;;;;;5052407;28;20045;-75
2021/04/13 01:52:36;;;;;;;1.67;0.80;;;;;;;;;;5043224;28;20120;-75
2021/04/13 01:55:09;;;;;;;2.50;1.00;;;;;;;;;;5062599;28;20947;-75
2021/04/13 01:57:56;;;;;;;1.80;0.80;;;;;;;;;;5034958;28;20576;-75
2021/04/13 02:00:30;;;;;;;2.55;1.00;;;;;;;;;;5036248;28;20036;-77
2021/04/13 02:03:25;;;;;;;2.67;0.90;;;;;;;;;;5065034;28;20036;-76
2021/04/13 02:05:54;;;;;;;1.85;0.90;;;;;;;;;;5064585;28;20040;-76
2021/04/13 02:08:26;;;;;;;1.73;0.73;;;;;;;;;;5069693;28;20496;-75
2021/04/13 02:11:09;;;;;;;1.42;0.80;;;;;;;;;;5052993;28;20137;-75
2021/04/13 02:13:39;;;;;;;1.38;0.68;;;;;;;;;;5047251;28;20404;-75
2021/04/13 02:16:21;;;;;;;2.17;1.02;;;;;;;;;;5066394;28;20056;-75
2021/04/13 02:18:48;;;;;;;1.73;0.90;;;;;;;;;;5062866;28;20040;-75
2021/04/13 02:21:17;;;;;;;;;;;;;;;;;;5033790;28;20033;-75
2021/04/13 02:23:48;;;;;;;2.30;0.88;;;;;;;;;;5030698;28;19913;-75
2021/04/13 02:26:13;;;;;;;2.63;0.95;;;;;;;;;;5035985;28;20150;-76
2021/04/13 02:28:39;;;;;;;2.50;1.00;;;;;;;;;;5040141;28;20516;-75
2021/04/13 02:31:09;;;;;;;1.47;0.70;;;;;;;;;;5040567;28;20029;-76
2021/04/13 02:33:36;;;;;;;1.55;0.85;;;;;;;;;;5040643;28;20369;-75
2021/04/13 02:36:18;;;;;;;1.60;0.80;;;;;;;;;;5032953;28;20096;-75
2021/04/13 02:38:48;;;;;;;1.63;0.70;;;;;;;;;;5034361;28;20040;-76
2021/04/13 02:41:27;;;;;;;2.17;1.00;;;;;;;;;;5033208;28;20105;-76
2021/04/13 02:43:54;;;;;;;1.50;0.70;;;;;;;;;;5045833;28;20044;-75
2021/04/13 02:46:24;;;;;;;2.35;0.70;;;;;;;;;;5037693;28;20397;-75
2021/04/13 02:48:52;;;;;;;2.42;0.90;;;;;;;;;;5049103;28;20030;-75
2021/04/13 02:51:17;;;;;;;1.70;0.80;;;;;;;;;;5040753;28;20480;-75
2021/04/13 02:53:50;;;;;;;1.60;0.80;;;;;;;;;;5055539;28;20040;-77
2021/04/13 02:56:37;;;;;;;2.03;0.70;;;;;;;;;;5061065;28;20119;-75
2021/04/13 02:59:12;;;;;;;;;;;;;;;;;;5045530;28;20087;-75
2021/04/13 03:01:39;;;;;;;1.58;0.75;;;;;;;;;;5052502;28;19909;-75
2021/04/13 03:04:07;;;;;;;1.65;0.80;;;;;;;;;;5034115;28;20412;-76
2021/04/13 03:06:43;;;;;;;1.63;0.80;;;;;;;;;;5017249;28;20041;-76
2021/04/13 03:09:08;;;;;;;1.27;0.70;;;;;;;;;;5016295;28;20049;-75
2021/04/13 03:11:35;;;;;;;1.70;0.70;;;;;;;;;;5066535;28;20055;-76
2021/04/13 03:14:00;;;;;;;1.85;0.70;;;;;;;;;;5068710;28;20052;-75
2021/04/13 03:16:36;;;;;;;2.03;0.90;;;;;;;;;;5042738;28;20502;-75
2021/04/13 03:19:02;;;;;;;2.05;0.75;;;;;;;;;;5027684;28;20037;-76
2021/04/13 03:21:33;;;;;;;2.33;0.90;;;;;;;;;;5036050;28;20484;-75
2021/04/13 03:23:59;;;;;;;1.90;0.80;;;;;;;;;;5018772;28;20127;-75
2021/04/13 03:26:27;;;;;;;1.15;0.60;;;;;;;;;;5031710;28;20124;-75
2021/04/13 03:28:54;;;;;;;2.22;0.65;;;;;;;;;;5068104;28;20044;-76
2021/04/13 03:31:20;;;;;;;1.70;0.82;;;;;;;;;;5052193;28;20033;-75
2021/04/13 03:33:46;;;;;;;1.20;0.70;;;;;;;;;;5065409;28;20468;-76
2021/04/13 03:36:18;;;;;;;1.73;0.80;;;;;;;;;;5069092;28;20040;-75
2021/04/13 03:38:48;;;;;;;1.77;0.80;;;;;;;;;;5072834;28;20056;-76
2021/04/13 03:41:14;;;;;;;1.45;0.63;;;;;;;;;;5058404;28;20017;-75
2021/04/13 03:43:40;;;;;;;2.20;0.73;;;;;;;;;;5048749;28;20033;-75
2021/04/13 03:46:05;;;;;;;2.27;0.90;;;;;;;;;;5072919;28;20043;-76
2021/04/13 03:48:31;;;;;;;2.13;0.80;;;;;;;;;;5068192;28;20033;-75
2021/04/13 03:51:09;;;;;;;1.88;0.77;;;;;;;;;;5037287;28;20412;-75
2021/04/13 03:53:39;;;;;;;1.60;0.80;;;;;;;;;;5057760;28;20034;-75
2021/04/13 03:56:07;;;;;;;1.45;0.73;;;;;;;;;;5036350;28;20113;-76
2021/04/13 03:58:36;;;;;;;1.05;0.70;;;;;;;;;;5065531;28;20048;-75
2021/04/13 04:01:01;;;;;;;1.80;0.70;;;;;;;;;;5027526;28;20036;-75
2021/04/13 04:03:33;;;;;;;1.70;0.67;;;;;;;;;;5064258;28;20052;-75
2021/04/13 04:05:59;;;;;;;1.65;0.80;;;;;;;;;;5038431;28;20040;-75
2021/04/13 04:08:38;;;;;;;1.70;0.70;;;;;;;;;;5052783;28;20029;-75
2021/04/13 04:11:03;;;;;;;1.15;0.60;;;;;;;;;;5036128;28;20112;-75
2021/04/13 04:13:36;;;;;;;1.47;0.80;;;;;;;;;;5060811;28;20455;-75
2021/04/13 04:16:06;;;;;;;1.70;0.75;;;;;;;;;;5073462;28;20028;-75
2021/04/13 04:18:42;;;;;;;1.52;0.65;;;;;;;;;;5065392;28;20041;-75
2021/04/13 04:21:18;;;;;;;1.50;0.70;;;;;;;;;;5070893;28;20021;-75
2021/04/13 04:23:43;;;;;;;2.03;0.80;;;;;;;;;;5043009;28;20065;-75
2021/04/13 04:26:09;;;;;;;1.23;0.80;;;;;;;;;;5051408;28;20064;-75
2021/04/13 04:28:35;;;;;;;1.73;0.90;;;;;;;;;;5023032;28;20069;-75
2021/04/13 04:31:21;;;;;;;1.35;0.68;;;;;;;;;;5054597;28;20502;-75
2021/04/13 04:33:46;;;;;;;1.00;0.50;;;;;;;;;;5062282;28;20095;-75
2021/04/13 04:36:31;;;;;;;1.20;0.60;;;;;;;;;;5070920;28;20459;-75
2021/04/13 04:39:22;;;;;;;1.42;0.57;;;;;;;;;;5054050;28;20056;-75
2021/04/13 04:41:48;;;;;;;1.35;0.70;;;;;;;;;;5051174;28;20164;-76
2021/04/13 04:44:24;;;;;;;1.60;0.70;;;;;;;;;;5066125;28;20037;-75
2021/04/13 04:46:49;;;;;;;1.13;0.63;;;;;;;;;;5070785;28;20063;-75
2021/04/13 04:49:16;;;;;;;2.17;0.70;;;;;;;;;;5061152;28;20025;-75
2021/04/13 04:51:42;;;;;;;1.38;0.68;;;;;;;;;;5034331;28;20080;-75
2021/04/13 04:54:08;;;;;;;1.30;0.63;;;;;;;;;;5045435;28;20040;-75
2021/04/13 04:56:33;;;;;;;1.60;0.80;;;;;;;;;;5064826;28;20034;-75
2021/04/13 04:58:59;;;;;;;1.60;0.70;;;;;;;;;;5050804;28;20112;-75
2021/04/13 05:01:24;;;;;;;1.33;0.70;;;;;;;;;;5052281;28;20040;-75
2021/04/13 05:03:50;;;;;;;1.63;0.70;;;;;;;;;;5051679;28;20086;-75
2021/04/13 05:06:16;;;;;;;1.30;0.70;;;;;;;;;;5070922;28;20519;-75
2021/04/13 05:08:41;;;;;;;1.00;0.63;;;;;;;;;;5054093;28;20053;-75
2021/04/13 05:11:07;;;;;;;1.83;0.80;;;;;;;;;;5050208;28;20439;-75
2021/04/13 05:13:32;;;;;;;1.27;0.70;;;;;;;;;;5017327;28;20037;-75
2021/04/13 05:15:58;;;;;;;1.57;0.73;;;;;;;;;;5034580;28;20087;-75
2021/04/13 05:18:24;;;;;;;1.45;0.60;;;;;;;;;;5051776;28;20033;-75
2021/04/13 05:20:49;;;;;;;1.07;0.70;;;;;;;;;;5020641;28;20675;-75
2021/04/13 05:23:14;;;;;;;1.00;0.60;;;;;;;;;;5071138;28;20476;-78
2021/04/13 05:25:41;;;;;;;1.77;0.73;;;;;;;;;;5055972;28;20091;-78
2021/04/13 05:28:06;;;;;;;1.00;0.60;;;;;;;;;;5046057;28;20488;-75
2021/04/13 05:30:31;;;;;;;1.97;0.80;;;;;;;;;;5059132;28;20108;-75
2021/04/13 05:32:57;;;;;;;1.27;0.70;;;;;;;;;;5058625;28;20528;-75
2021/04/13 05:35:22;;;;;;;3.50;0.87;;;;;;;;;;5058348;28;20116;-75
2021/04/13 05:37:48;;;;;;;1.57;0.63;;;;;;;;;;5054031;28;20092;-75
2021/04/13 05:40:16;;;;;;;1.97;0.77;;;;;;;;;;5038507;28;20048;-75
2021/04/13 05:42:42;;;;;;;1.60;0.65;;;;;;;;;;5038091;28;20041;-75
2021/04/13 05:45:09;;;;;;;1.87;0.80;;;;;;;;;;5058926;28;20119;-75
2021/04/13 05:47:35;;;;;;;1.42;0.77;;;;;;;;;;5057542;28;20032;-75
2021/04/13 05:50:01;;;;;;;1.17;0.75;;;;;;;;;;5057311;28;20033;-76
2021/04/13 05:52:26;;;;;;;1.03;0.67;;;;;;;;;;5055127;28;20052;-76
2021/04/13 05:54:51;;;;;;;2.30;0.80;;;;;;;;;;5038185;28;20038;-75
2021/04/13 05:57:21;;;;;;;1.50;0.80;;;;;;;;;;5053069;28;20053;-76
2021/04/13 05:59:50;;;;;;;1.45;0.80;;;;;;;;;;5062984;28;20033;-75
2021/04/13 06:02:16;;;;;;;2.75;0.82;;;;;;;;;;5058506;28;20029;-75
2021/04/13 06:04:42;;;;;;;1.73;0.80;;;;;;;;;;5056703;28;20048;-75
2021/04/13 06:07:07;;;;;;;1.43;0.70;;;;;;;;;;5058695;28;20071;-75
2021/04/13 06:09:32;;;;;;;1.40;0.60;;;;;;;;;;5055449;28;20029;-75
2021/04/13 06:11:59;;;;;;;1.53;0.80;;;;;;;;;;5052692;28;20392;-75
2021/04/13 06:14:24;;;;;;;;;;;;;;;;;;5048796;28;20048;-75
2021/04/13 06:16:51;;;;;;;1.75;0.70;;;;;;;;;;5055114;28;19913;-75
2021/04/13 06:19:16;;;;;;;;;;;;;;;;;;5057295;28;20029;-75
2021/04/13 06:21:42;;;;;;;1.27;0.60;;;;;;;;;;5037303;28;19909;-75
2021/04/13 06:24:09;;;;;;;0.90;0.63;;;;;;;;;;5053522;28;20108;-75
2021/04/13 06:26:34;;;;;;;1.65;0.80;;;;;;;;;;5045362;28;20124;-75
2021/04/13 06:29:00;;;;;;;1.73;0.83;;;;;;;;;;5041994;28;20101;-74
2021/04/13 06:31:25;;;;;;;1.67;0.80;;;;;;;;;;5038807;28;20041;-75
2021/04/13 06:33:50;;;;;;;3.40;0.87;;;;;;;;;;5054623;28;20067;-75
2021/04/13 06:36:17;;;;;;;2.30;0.80;;;;;;;;;;5039740;28;20053;-74
2021/04/13 06:38:42;;;;;;;1.45;0.88;;;;;;;;;;5050917;28;20052;-75
2021/04/13 06:41:13;;;;;;;1.30;0.70;;;;;;;;;;5038229;28;20033;-75
2021/04/13 06:43:56;;;;;;;1.30;0.70;;;;;;;;;;5055788;28;20071;-75
2021/04/13 06:46:35;;;;;;;3.35;0.98;;;;;;;;;;5038021;28;20111;-75
2021/04/13 06:49:23;;;;;;;2.60;0.88;;;;;;;;;;5039699;28;20084;-75
2021/04/13 06:51:55;;;;;;;1.15;0.68;;;;;;;;;;5060889;28;20094;-74
2021/04/13 06:55:02;;;;;;;1.35;0.63;;;;;;;;;;5045519;28;20094;-74
2021/04/13 06:57:45;;;;;;;1.30;0.75;;;;;;;;;;5058648;28;20033;-74
2021/04/13 07:00:29;;;;;;;1.48;0.80;;;;;;;;;;5049777;28;20079;-75
2021/04/13 07:03:18;;;;;;;1.67;0.90;;;;;;;;;;5047366;28;20045;-78
2021/04/13 07:06:12;;;;;;;1.52;0.70;;;;;;;;;;5032921;28;20037;-77
2021/04/13 07:08:40;;;;;;;2.42;0.90;;;;;;;;;;5054887;28;20048;-76
2021/04/13 07:11:20;;;;;;;1.42;0.77;;;;;;;;;;5042005;28;20033;-77
2021/04/13 07:14:10;;;;;;;1.73;0.80;;;;;;;;;;5044138;28;20630;-76
2021/04/13 07:16:40;;;;;;;1.95;0.90;;;;;;;;;;5042978;28;20041;-76
2021/04/13 07:19:20;;;;;;;1.38;0.70;;;;;;;;;;5057448;28;20048;-77
2021/04/13 07:22:08;;;;;;;1.42;0.75;;;;;;;;;;5062548;28;20044;-77
2021/04/13 07:24:37;;;;;;;;;;;;;;;;;;5043359;28;20163;-77
2021/04/13 07:27:12;;;;;;;1.23;0.75;;;;;;;;;;5048356;28;20398;-77
2021/04/13 07:29:44;;;;;;;1.30;0.70;;;;;;;;;;5059863;28;20051;-77
2021/04/13 07:32:18;;;;;;;1.58;0.70;;;;;;;;;;5045652;28;20064;-77
2021/04/13 07:34:44;;;;;;;1.90;0.80;;;;;;;;;;5055436;28;20025;-79
2021/04/13 07:37:15;;;;;;;1.20;0.80;;;;;;;;;;5063501;28;20036;-79
2021/04/13 07:39:40;;;;;;;1.80;0.90;;;;;;;;;;5061853;28;20025;-79
2021/04/13 07:42:12;;;;;;;1.80;0.80;;;;;;;;;;5065770;28;20121;-77
2021/04/13 07:45:01;;;;;;;2.90;1.10;;;;;;;;;;5060567;28;20129;-77
2021/04/13 07:47:44;;;;;;;2.42;0.88;;;;;;;;;;5045362;28;20041;-77
2021/04/13 07:50:10;;;;;;;1.48;0.70;;;;;;;;;;5045062;28;20032;-77
2021/04/13 07:53:10;;;;;;;2.30;0.90;;;;;;;;;;5061656;28;20508;-77
2021/04/13 07:55:37;;;;;;;2.05;0.80;;;;;;;;;;5070754;28;20117;-77
2021/04/13 07:58:21;;;;;;;1.40;0.70;;;;;;;;;;5081274;28;20049;-77
2021/04/13 08:00:51;;;;;;;1.55;0.85;;;;;;;;;;5080193;28;20031;-77
2021/04/13 08:03:28;;;;;;;1.48;0.65;;;;;;;;;;5079166;28;20037;-77
2021/04/13 08:05:55;;;;;;;2.05;0.93;;;;;;;;;;5063350;28;20036;-77
2021/04/13 08:08:31;;;;;;;1.77;0.80;;;;;;;;;;5063702;28;20117;-76
2021/04/13 08:11:12;;;;;;;2.05;0.60;;;;;;;;;;5056584;28;20033;-77
2021/04/13 08:13:37;;;;;;;2.17;0.85;;;;;;;;;;5044025;28;20091;-76
2021/04/13 08:16:03;;;;;;;1.90;0.80;;;;;;;;;;5047556;28;20029;-77
2021/04/13 08:18:42;;;;;;;1.07;0.60;;;;;;;;;;5045096;28;20038;-77
2021/04/13 08:21:25;;;;;;;1.20;0.70;;;;;;;;;;5045051;28;20029;-77
2021/04/13 08:23:51;;;;;;;1.33;0.65;;;;;;;;;;5046838;28;20125;-77
2021/04/13 08:26:26;;;;;;;1.20;0.70;;;;;;;;;;5049851;28;20095;-77
2021/04/13 08:29:16;;;;;;;1.67;0.60;;;;;;;;;;5046368;28;20120;-77
2021/04/13 08:35:03;;;;;;;1.75;0.63;;;;;;;;;;5065167;28;20085;-77
2021/04/13 08:37:42;;;;;;;1.05;0.63;;;;;;;;;;5064444;28;20036;-77
2021/04/13 08:40:28;;;;;;;1.52;0.70;;;;;;;;;;5065813;28;20029;-77
2021/04/13 08:43:40;;;;;;;1.35;0.80;;;;;;;;;;5059938;28;20033;-76
2021/04/13 08:46:16;;;;;;;1.90;0.80;;;;;;;;;;5055146;28;20047;-76
2021/04/13 08:48:47;;;;;;;3.22;0.80;;;;;;;;;;5045357;28;20051;-76
2021/04/13 08:51:20;;;;;;;2.08;0.70;;;;;;;;;;5062364;28;20041;-77
2021/04/13 08:53:50;;;;;;;1.75;0.70;;;;;;;;;;5062418;28;20044;-76
2021/04/13 08:56:23;;;;;;;1.48;0.80;;;;;;;;;;5078964;28;20037;-77
2021/04/13 08:58:53;;;;;;;1.42;0.73;;;;;;;;;;5065535;28;20035;-77
2021/04/13 09:01:33;;;;;;;1.75;0.80;;;;;;;;;;5080243;28;20040;-77
2021/04/13 09:03:59;;;;;;;1.65;0.75;;;;;;;;;;5052820;28;20496;-77
2021/04/13 09:06:42;;;;;;;2.10;0.77;;;;;;;;;;5057637;28;20119;-77
2021/04/13 09:09:28;;;;;;;2.25;0.70;;;;;;;;;;5046713;28;20060;-77
2021/04/13 09:12:00;;;;;;;1.30;0.70;;;;;;;;;;5056129;28;20048;-77
2021/04/13 09:14:37;;;;;;;1.60;0.90;;;;;;;;;;5041487;28;20044;-77
2021/04/13 09:17:07;;;;;;;;;;;;;;;;;;5066289;28;20025;-76
2021/04/13 09:19:52;;;;;;;1.27;0.70;;;;;;;;;;5053163;28;20011;-76
2021/04/13 09:22:26;;;;;;;1.27;0.60;;;;;;;;;;5060593;28;20029;-76
2021/04/13 09:25:28;;;;;;;2.28;0.88;;;;;;;;;;5046512;28;20038;-77
2021/04/13 09:28:06;;;;;;;1.50;0.65;;;;;;;;;;5075191;28;20029;-76
2021/04/13 09:30:37;;;;;;;2.25;0.70;;;;;;;;;;5071908;28;20231;-77
2021/04/13 09:33:09;;;;;;;2.47;0.80;;;;;;;;;;5076456;28;20041;-77
2021/04/13 09:35:47;;;;;;;1.55;0.80;;;;;;;;;;5064824;28;20044;-77
2021/04/13 09:38:20;;;;;;;1.85;0.77;;;;;;;;;;5082705;28;20033;-77
2021/04/13 09:40:57;;;;;;;0.80;0.60;;;;;;;;;;5080338;28;20021;-77
2021/04/13 09:43:37;;;;;;;1.90;0.70;;;;;;;;;;5065216;28;20043;-77
2021/04/13 09:46:21;;;;;;;1.23;0.70;;;;;;;;;;5079229;28;20043;-77
2021/04/13 09:49:14;;;;;;;1.17;0.50;;;;;;;;;;5064144;28;20040;-77
2021/04/13 09:52:07;;;;;;;1.67;0.68;;;;;;;;;;5054290;28;20048;-76
2021/04/13 09:54:38;;;;;;;1.83;0.73;;;;;;;;;;5043228;28;20065;-76
2021/04/13 09:57:16;;;;;;;1.80;0.70;;;;;;;;;;5046811;28;20065;-77
2021/04/13 10:00:03;;;;;;;1.00;0.60;;;;;;;;;;5052512;28;20041;-76
2021/04/13 10:02:38;;;;;;;2.15;1.00;;;;;;;;;;5044960;28;20448;-77
2021/04/13 10:05:11;;;;;;;1.60;0.65;;;;;;;;;;5067912;28;20088;-76
2021/04/13 10:07:53;;;;;;;1.48;0.60;;;;;;;;;;5041873;28;20045;-77
2021/04/13 10:10:28;;;;;;;1.55;0.70;;;;;;;;;;5032018;28;20037;-79
2021/04/13 10:13:24;;;;;;;1.67;0.75;;;;;;;;;;5060995;28;20111;-79
2021/04/13 10:15:55;;;;;;;1.65;0.60;;;;;;;;;;5048602;28;20041;-80
2021/04/13 10:18:48;;;;;;;1.55;0.60;;;;;;;;;;5046971;28;20041;-80
2021/04/13 10:21:48;;;;;;;1.02;0.70;;;;;;;;;;5056096;28;20029;-80
2021/04/13 10:24:42;;;;;;;1.20;0.70;;;;;;;;;;5063542;28;20037;-80
2021/04/13 10:27:13;;;;;;;1.40;0.60;;;;;;;;;;5045810;28;20041;-80
2021/04/13 10:30:12;;;;;;;1.80;0.60;;;;;;;;;;5044638;28;20042;-80
2021/04/13 10:33:07;;;;;;;1.25;0.60;;;;;;;;;;5045955;28;20116;-79
2021/04/13 10:35:45;;;;;;;1.25;0.70;;;;;;;;;;5046733;28;20073;-80
2021/04/13 10:38:36;;;;;;;2.00;0.70;;;;;;;;;;5046937;28;20056;-79
2021/04/13 10:41:10;;;;;;;2.92;0.93;;;;;;;;;;5056515;28;20029;-78
2021/04/13 10:44:07;;;;;;;1.70;0.60;;;;;;;;;;5048798;28;20037;-77
2021/04/13 10:46:50;;;;;;;2.40;0.73;;;;;;;;;;5038936;28;20041;-78
2021/04/13 10:49:40;;;;;;;1.70;0.70;;;;;;;;;;5062892;28;20056;-78
2021/04/13 10:52:31;;;;;;;2.40;0.70;;;;;;;;;;5046156;28;20030;-77
2021/04/13 10:55:11;;;;;;;1.55;0.60;;;;;;;;;;5052437;28;20037;-78
2021/04/13 10:57:48;;;;;;;2.53;0.80;;;;;;;;;;5062855;28;20026;-75
2021/04/13 11:00:32;;;;;;;2.47;0.80;;;;;;;;;;5042195;28;20064;-75
2021/04/13 11:03:13;;;;;;;2.83;0.80;;;;;;;;;;5054345;28;20067;-75
2021/04/13 11:06:00;;;;;;;1.35;0.73;;;;;;;;;;5048499;28;20046;-75
2021/04/13 11:08:54;;;;;;;1.60;0.73;;;;;;;;;;5056095;28;20033;-76
2021/04/13 11:11:38;;;;;;;2.47;0.80;;;;;;;;;;5075004;28;20037;-75
2021/04/13 11:14:31;;;;;;;2.42;0.85;;;;;;;;;;5063508;28;20044;-79
2021/04/13 11:17:05;;;;;;;1.63;0.80;;;;;;;;;;5057248;28;20029;-79
2021/04/13 11:20:02;;;;;;;1.60;0.80;;;;;;;;;;5047211;28;20116;-79
2021/04/13 11:22:52;;;;;;;3.22;0.90;;;;;;;;;;5068095;28;20063;-79
2021/04/13 11:25:36;;;;;;;1.98;0.70;;;;;;;;;;5066741;28;20044;-79
2021/04/13 11:28:26;;;;;;;2.58;0.80;;;;;;;;;;5053948;28;20052;-80
2021/04/13 11:31:11;;;;;;;1.60;0.70;;;;;;;;;;5056484;28;20045;-79
2021/04/13 11:34:04;;;;;;;1.67;0.60;;;;;;;;;;5049754;28;20029;-79
2021/04/13 11:36:41;;;;;;;1.98;0.70;;;;;;;;;;5065448;28;20040;-79
2021/04/13 11:39:52;;;;;;;4.47;0.63;;;;;;;;;;5048442;28;20029;-80
2021/04/13 11:42:24;;;;;;;1.85;0.80;;;;;;;;;;5054204;28;20049;-80
2021/04/13 11:45:20;;;;;;;3.33;0.90;;;;;;;;;;5062668;28;20033;-79
2021/04/13 11:48:10;;;;;;;2.30;0.90;;;;;;;;;;5065462;28;20041;-79
2021/04/13 11:50:41;;;;;;;1.70;0.80;;;;;;;;;;5053053;28;20065;-79
2021/04/13 11:53:08;;;;;;;2.80;0.80;;;;;;;;;;5047018;28;20037;-79
2021/04/13 11:55:38;;;;;;;1.95;0.70;;;;;;;;;;5079773;28;20032;-79
2021/04/13 11:58:21;;;;;;;2.83;0.75;;;;;;;;;;5081011;28;20100;-80
2021/04/13 12:00:53;;;;;;;4.88;0.98;;;;;;;;;;5066518;28;20025;-79
2021/04/13 12:03:28;;;;;;;2.55;1.00;;;;;;;;;;5081640;28;20464;-78
2021/04/13 12:05:55;;;;;;;3.35;0.85;;;;;;;;;;5072843;28;20164;-77
2021/04/13 12:08:30;;;;;;;1.48;0.80;;;;;;;;;;5039206;28;20102;-76
2021/04/13 12:10:56;;;;;;;1.30;0.70;;;;;;;;;;5057938;28;20056;-77
2021/04/13 12:13:41;;;;;;;;;;;;;;;;;;5066813;28;20041;-79
2021/04/13 12:16:07;;;;;;;2.20;0.80;;;;;;;;;;5067670;28;20391;-79
2021/04/13 12:18:35;;;;;;;1.13;0.70;;;;;;;;;;5057536;28;20103;-78
2021/04/13 12:21:27;;;;;;;2.08;0.85;;;;;;;;;;5043119;28;20053;-77
2021/04/13 12:24:02;;;;;;;1.65;0.75;;;;;;;;;;5048829;28;20136;-77
2021/04/13 12:26:35;;;;;;;2.28;1.25;;;;;;;;;;5047553;28;20108;-78
2021/04/13 12:29:18;;;;;;;4.15;1.67;;;;;;;;;;5048810;28;20096;-77
2021/04/13 12:31:44;;;;;;;3.25;1.35;;;;;;;;;;5043131;28;20041;-77
2021/04/13 12:34:09;;;;;;;3.93;1.70;;;;;;;;;;5065307;28;20033;-78
2021/04/13 12:36:57;;;;;;;3.00;1.60;;;;;;;;;;5067517;28;20028;-78
2021/04/13 12:39:41;;;;;;;;;;;;;;;;;;5079144;28;20033;-78
2021/04/13 12:42:07;;;;;;;4.85;1.73;;;;;;;;;;5069935;28;20002;-78
2021/04/13 12:44:32;;;;;;;3.77;1.70;;;;;;;;;;5084398;28;20041;-78
2021/04/13 12:46:59;;;;;;;4.60;2.07;;;;;;;;;;5061709;28;20479;-75
2021/04/13 12:49:31;;;;;;;;;;;;;;;;;;5039515;28;20058;-75
2021/04/13 12:52:04;;;;;;;4.43;1.33;;;;;;;;;;5061405;28;21287;-80
2021/04/13 12:54:37;;;;;;;6.10;1.35;;;;;;;;;;5049662;28;20489;-78
2021/04/13 12:57:12;;;;;;;3.42;1.23;;;;;;;;;;5068431;28;20044;-78
2021/04/13 12:59:42;;;;;;;4.07;1.30;;;;;;;;;;5051371;28;20060;-78
2021/04/13 13:02:27;;;;;;;4.30;1.27;;;;;;;;;;5052491;28;20068;-77
2021/04/13 13:04:53;;;;;;;2.80;1.20;;;;;;;;;;5048327;28;20033;-77
2021/04/13 13:07:23;;;;;;;4.33;1.50;;;;;;;;;;5048471;28;20097;-78
2021/04/13 13:09:49;;;;;;;3.47;1.33;;;;;;;;;;5078582;28;20079;-78
2021/04/13 13:12:24;;;;;;;4.30;1.50;;;;;;;;;;5063228;28;20475;-78
2021/04/13 13:14:51;;;;;;;3.30;1.20;;;;;;;;;;5069285;28;20033;-78
2021/04/13 13:17:31;;;;;;;5.30;1.25;;;;;;;;;;5068446;28;20025;-78
2021/04/13 13:19:56;;;;;;;5.25;1.45;;;;;;;;;;5069042;28;20044;-78
2021/04/13 13:22:27;;;;;;;3.40;1.33;;;;;;;;;;5063371;28;20044;-77
2021/04/13 13:24:53;;;;;;;2.22;1.10;;;;;;;;;;5066255;28;20104;-78
2021/04/13 13:27:26;;;;;;;3.03;1.13;;;;;;;;;;5083876;28;20033;-77
2021/04/13 13:29:51;;;;;;;4.70;1.17;;;;;;;;;;5048105;28;20037;-80
2021/04/13 13:32:17;;;;;;;4.23;1.60;;;;;;;;;;5055542;28;20463;-79
2021/04/13 13:34:53;;;;;;;2.85;1.08;;;;;;;;;;5057545;28;20060;-78
2021/04/13 13:37:19;;;;;;;4.57;1.52;;;;;;;;;;5031274;28;20041;-79
2021/04/13 13:39:44;;;;;;;2.90;1.23;;;;;;;;;;5063356;28;20052;-78
2021/04/13 13:42:16;;;;;;;2.90;1.23;;;;;;;;;;5050763;28;20084;-79
2021/04/13 13:44:46;;;;;;;4.18;1.35;;;;;;;;;;5078307;28;20116;-79
2021/04/13 13:47:31;;;;;;;4.50;1.25;;;;;;;;;;5045074;28;20041;-79
2021/04/13 13:50:00;;;;;;;3.38;1.58;;;;;;;;;;5078621;28;20060;-79
2021/04/13 13:52:46;;;;;;;3.47;1.13;;;;;;;;;;5052625;28;20037;-79
2021/04/13 13:55:11;;;;;;;5.25;1.50;;;;;;;;;;5038927;28;20714;-79
2021/04/13 13:57:38;;;;;;;4.90;1.50;;;;;;;;;;5051956;28;20060;-78
2021/04/13 14:00:07;;;;;;;3.20;1.20;;;;;;;;;;5060270;28;20107;-77
2021/04/13 14:02:35;;;;;;;3.13;1.30;;;;;;;;;;5053675;28;20032;-79
2021/04/13 14:05:14;;;;;;;3.60;1.33;;;;;;;;;;5029055;28;20041;-79
2021/04/13 14:07:40;;;;;;;3.22;1.33;;;;;;;;;;5044540;28;20129;-80
2021/04/13 14:10:11;;;;;;;4.23;1.50;;;;;;;;;;5040347;28;20053;-77
2021/04/13 14:12:36;;;;;;;4.03;1.30;;;;;;;;;;5055938;28;20129;-75
2021/04/13 14:15:32;;;;;;;4.57;1.37;;;;;;;;;;5054029;28;20128;-76
2021/04/13 14:18:23;;;;;;;4.80;1.52;;;;;;;;;;5047078;28;20068;-76
2021/04/13 14:20:58;;;;;;;3.30;1.27;;;;;;;;;;5050526;28;20090;-77
2021/04/13 14:23:23;;;;;;;4.85;1.85;;;;;;;;;;5050199;28;20048;-75
2021/04/13 14:25:48;;;;;;;3.37;1.20;;;;;;;;;;5048672;28;20448;-76
2021/04/13 14:28:21;;;;;;;2.83;1.10;;;;;;;;;;5049830;28;20049;-75
2021/04/13 14:30:46;;;;;;;6.50;1.30;;;;;;;;;;5064852;28;20032;-75
2021/04/13 14:33:12;;;;;;;4.07;1.37;;;;;;;;;;5030791;28;20526;-76
2021/04/13 14:35:39;;;;;;;3.67;1.40;;;;;;;;;;5069067;28;20128;-76
2021/04/13 14:38:17;;;;;;;5.35;1.25;;;;;;;;;;5047488;28;20030;-75
2021/04/13 14:40:43;;;;;;;4.13;1.38;;;;;;;;;;5032771;28;20373;-75
2021/04/13 14:43:09;;;;;;;4.40;1.30;;;;;;;;;;5048921;28;20116;-76
2021/04/13 14:45:34;;;;;;;4.17;1.30;;;;;;;;;;5033666;28;20120;-75
2021/04/13 14:48:05;;;;;;;3.72;1.25;;;;;;;;;;5050107;28;20476;-76
2021/04/13 14:50:35;;;;;;;2.83;1.00;;;;;;;;;;5020739;28;20041;-75
2021/04/13 14:53:01;;;;;;;3.38;1.33;;;;;;;;;;5068517;28;20032;-75
2021/04/13 14:55:26;;;;;;;3.03;1.07;;;;;;;;;;5051354;28;20029;-76
2021/04/13 14:57:53;;;;;;;5.07;1.33;;;;;;;;;;5051969;28;20456;-75
2021/04/13 15:00:19;;;;;;;3.03;1.20;;;;;;;;;;5067292;28;20029;-75
2021/04/13 15:02:44;;;;;;;3.28;1.10;;;;;;;;;;5038497;28;20062;-75
2021/04/13 15:05:10;;;;;;;4.50;1.33;;;;;;;;;;5035521;28;20029;-75
2021/04/13 15:07:35;;;;;;;2.40;1.17;;;;;;;;;;5065626;28;20044;-75
2021/04/13 15:10:01;;;;;;;3.73;1.27;;;;;;;;;;5051298;28;20044;-76
2021/04/13 15:12:26;;;;;;;4.30;1.30;;;;;;;;;;5048342;28;20034;-75
2021/04/13 15:14:51;;;;;;;4.70;1.13;;;;;;;;;;5031742;28;20076;-75
2021/04/13 15:17:17;;;;;;;2.47;1.20;;;;;;;;;;5018970;28;20118;-75
2021/04/13 15:19:43;;;;;;;2.73;1.30;;;;;;;;;;5040620;28;20037;-76
2021/04/13 15:22:08;;;;;;;3.20;1.10;;;;;;;;;;5048377;28;20672;-75
2021/04/13 15:24:33;;;;;;;3.17;1.30;;;;;;;;;;5031951;28;20590;-75
2021/04/13 15:26:59;;;;;;;4.27;1.27;;;;;;;;;;5032057;28;20480;-75